Time;durP1;ratioP1;P1;durP2;ratioP2;P2;SDS_P1;SDS_P2;PMS_P1;PMS_P2;Temp;Humidity;BMP_temperature;BMP_pressure;BME280_temperature;BME280_humidity;BME280_pressure;Samples;Min_cycle;Max_cycle;Signal;HPM_P1;HPM_P2
2022/07/25 00:02:13;;;;;;;;;;;20.40;99.90;;;;;;5058019;28;19927;-65
2022/07/25 00:04:39;;;;;;;;;;;20.30;99.90;;;;;;5093000;28;19908;-66
2022/07/25 00:07:04;;;;;;;;;;;20.40;99.90;;;;;;5093259;28;19915;-66
2022/07/25 00:09:30;;;;;;;;;;;20.40;99.90;;;;;;5094731;28;19907;-66
2022/07/25 00:11:55;;;;;;;;;;;20.40;99.90;;;;;;5096659;28;19919;-66
2022/07/25 00:14:21;;;;;;;;;;;20.40;99.90;;;;;;5096568;28;19916;-66
2022/07/25 00:16:46;;;;;;;;;;;20.30;99.90;;;;;;5096772;28;19915;-66
2022/07/25 00:19:12;;;;;;;;;;;20.30;99.90;;;;;;5096536;28;19908;-66
2022/07/25 00:21:37;;;;;;;;;;;20.30;99.90;;;;;;5078466;28;20022;-65
2022/07/25 00:24:03;;;;;;;;;;;20.30;99.90;;;;;;5096659;28;19908;-66
2022/07/25 00:26:28;;;;;;;;;;;20.20;99.90;;;;;;5096624;28;19908;-66
2022/07/25 00:28:54;;;;;;;;;;;20.20;99.90;;;;;;5096299;28;19908;-66
2022/07/25 00:31:19;;;;;;;;;;;20.10;99.90;;;;;;5096493;28;20366;-66
2022/07/25 00:33:45;;;;;;;;;;;20.10;99.90;;;;;;5096385;28;20427;-65
2022/07/25 00:36:10;;;;;;;;;;;20.10;99.90;;;;;;5096178;28;19908;-65
2022/07/25 00:38:36;;;;;;;;;;;19.90;99.90;;;;;;5096112;28;19995;-66
2022/07/25 00:41:02;;;;;;;;;;;19.90;99.90;;;;;;5096102;28;20290;-66
2022/07/25 00:43:27;;;;;;;;;;;19.80;99.90;;;;;;5095921;28;19920;-65
2022/07/25 00:45:53;;;;;;;;;;;19.80;99.90;;;;;;5096261;28;19908;-66
2022/07/25 00:48:18;;;;;;;;;;;19.70;99.90;;;;;;5095910;28;19943;-65
2022/07/25 00:50:44;;;;;;;;;;;19.70;99.90;;;;;;5096147;28;19908;-65
2022/07/25 00:53:10;;;;;;;;;;;19.70;99.90;;;;;;5095875;28;20259;-65
2022/07/25 00:55:36;;;;;;;;;;;19.70;99.90;;;;;;5096089;28;20334;-65
2022/07/25 00:58:01;;;;;;;;;;;19.70;99.90;;;;;;5095687;28;19912;-65
2022/07/25 01:00:27;;;;;;;;;;;19.70;99.90;;;;;;5095684;28;19940;-65
2022/07/25 01:02:52;;;;;;;;;;;19.70;99.90;;;;;;5095405;28;19920;-65
2022/07/25 01:05:18;;;;;;;;;;;19.80;99.90;;;;;;5095634;28;20348;-65
2022/07/25 01:07:44;;;;;;;;;;;19.70;99.90;;;;;;5095804;28;19915;-65
2022/07/25 01:10:09;;;;;;;;;;;19.80;99.90;;;;;;5095564;28;20389;-65
2022/07/25 01:12:53;;;;;;;;;;;19.80;99.90;;;;;;5095505;28;20370;-65
2022/07/25 01:15:20;;;;;;;;;;;19.80;99.90;;;;;;5095403;28;19908;-65
2022/07/25 01:17:45;;;;;;;;;;;19.80;99.90;;;;;;5095367;28;19965;-65
2022/07/25 01:20:16;;;;;;;;;;;19.70;99.90;;;;;;5095564;28;19908;-65
2022/07/25 01:22:42;;;;;;;;;;;19.60;99.90;;;;;;5095142;28;19919;-65
2022/07/25 01:25:08;;;;;;;;;;;19.60;99.90;;;;;;5095489;28;20286;-66
2022/07/25 01:27:33;;;;;;;;;;;19.60;99.90;;;;;;5095468;28;19909;-65
2022/07/25 01:29:59;;;;;;;;;;;19.50;99.90;;;;;;5095415;28;19915;-65
2022/07/25 01:32:24;;;;;;;;;;;19.50;99.90;;;;;;5095318;28;19916;-65
2022/07/25 01:34:49;;;;;;;;;;;19.50;99.90;;;;;;5095039;28;19914;-66
2022/07/25 01:37:15;;;;;;;;;;;19.50;99.90;;;;;;5095232;28;20024;-65
2022/07/25 01:39:40;;;;;;;;;;;19.50;99.90;;;;;;5094906;28;20349;-65
2022/07/25 01:42:06;;;;;;;;;;;19.50;99.90;;;;;;5095073;28;19958;-65
2022/07/25 01:44:31;;;;;;;;;;;19.50;99.90;;;;;;5095126;28;19936;-65
2022/07/25 01:46:57;;;;;;;;;;;19.50;99.90;;;;;;5095059;28;19908;-65
2022/07/25 01:49:25;;;;;;;;;;;19.50;99.90;;;;;;5094743;28;20269;-65
2022/07/25 01:51:51;;;;;;;;;;;19.40;99.90;;;;;;5094954;28;20024;-65
2022/07/25 01:54:16;;;;;;;;;;;19.40;99.90;;;;;;5094722;28;20491;-65
2022/07/25 01:56:43;;;;;;;;;;;19.30;99.90;;;;;;5094873;28;19912;-65
2022/07/25 01:59:08;;;;;;;;;;;19.30;99.90;;;;;;5094834;28;20353;-65
2022/07/25 02:01:35;;;;;;;;;;;19.20;99.90;;;;;;5094731;28;19919;-65
2022/07/25 02:04:00;;;;;;;;;;;19.10;99.90;;;;;;5094358;28;19924;-65
2022/07/25 02:06:26;;;;;;;;;;;19.00;99.90;;;;;;5094447;28;20358;-65
2022/07/25 02:08:51;;;;;;;;;;;18.90;99.90;;;;;;5094659;28;20022;-65
2022/07/25 02:11:17;;;;;;;;;;;18.90;99.90;;;;;;5094331;28;20350;-65
2022/07/25 02:13:43;;;;;;;;;;;18.80;99.90;;;;;;5094334;28;19920;-65
2022/07/25 02:16:09;;;;;;;;;;;18.70;99.90;;;;;;5076122;28;20329;-65
2022/07/25 02:18:34;;;;;;;;;;;18.70;99.90;;;;;;5094199;28;19962;-65
2022/07/25 02:21:00;;;;;;;;;;;18.70;99.90;;;;;;5094168;28;19908;-65
2022/07/25 02:23:25;;;;;;;;;;;18.70;99.90;;;;;;5094323;28;19922;-65
2022/07/25 02:25:51;;;;;;;;;;;18.60;99.90;;;;;;5094064;28;19955;-66
2022/07/25 02:28:17;;;;;;;;;;;18.60;99.90;;;;;;5094296;28;19908;-65
2022/07/25 02:30:42;;;;;;;;;;;18.50;99.90;;;;;;5094003;28;19955;-66
2022/07/25 02:33:08;;;;;;;;;;;18.50;99.90;;;;;;5093866;28;20396;-65
2022/07/25 02:35:33;;;;;;;;;;;18.40;99.90;;;;;;5094249;28;19940;-66
2022/07/25 02:37:59;;;;;;;;;;;18.40;99.90;;;;;;5094211;28;19931;-66
2022/07/25 02:40:25;;;;;;;;;;;18.30;99.90;;;;;;5093860;28;19908;-66
2022/07/25 02:42:50;;;;;;;;;;;18.30;99.90;;;;;;5094059;28;19912;-65
2022/07/25 02:45:16;;;;;;;;;;;18.30;99.90;;;;;;5094034;28;19919;-66
2022/07/25 02:47:41;;;;;;;;;;;18.30;99.90;;;;;;5094048;28;20378;-66
2022/07/25 02:50:07;;;;;;;;;;;18.30;99.90;;;;;;5093720;28;20374;-65
2022/07/25 02:52:32;;;;;;;;;;;18.30;99.90;;;;;;5093742;28;20020;-66
2022/07/25 02:54:58;;;;;;;;;;;18.30;99.90;;;;;;5093677;28;19930;-66
2022/07/25 02:57:23;;;;;;;;;;;18.30;99.90;;;;;;5093663;28;19998;-66
2022/07/25 02:59:49;;;;;;;;;;;18.30;99.90;;;;;;5093636;28;19908;-65
2022/07/25 03:02:14;;;;;;;;;;;18.20;99.90;;;;;;5093566;28;19920;-66
2022/07/25 03:04:40;;;;;;;;;;;18.30;99.90;;;;;;5093585;28;19955;-66
2022/07/25 03:07:05;;;;;;;;;;;18.30;99.90;;;;;;5093556;28;19928;-66
2022/07/25 03:09:31;;;;;;;;;;;18.30;99.90;;;;;;5093780;28;20372;-66
2022/07/25 03:11:56;;;;;;;;;;;18.40;99.90;;;;;;5093507;28;19908;-66
2022/07/25 03:14:22;;;;;;;;;;;18.40;99.90;;;;;;5093458;28;19915;-66
2022/07/25 03:16:47;;;;;;;;;;;18.40;99.90;;;;;;5093671;28;19915;-66
2022/07/25 03:19:13;;;;;;;;;;;18.40;99.90;;;;;;5093706;28;19915;-66
2022/07/25 03:21:39;;;;;;;;;;;18.40;99.90;;;;;;5093613;28;19912;-66
2022/07/25 03:24:04;;;;;;;;;;;18.40;99.90;;;;;;5093725;28;19908;-66
2022/07/25 03:26:30;;;;;;;;;;;18.40;99.90;;;;;;5093624;28;19908;-66
2022/07/25 03:28:55;;;;;;;;;;;18.40;99.90;;;;;;5093542;28;19966;-66
2022/07/25 03:31:21;;;;;;;;;;;18.40;99.90;;;;;;5093341;28;19957;-66
2022/07/25 03:33:46;;;;;;;;;;;18.40;99.90;;;;;;5093289;28;19908;-66
2022/07/25 03:36:12;;;;;;;;;;;18.50;99.90;;;;;;5075226;28;20007;-66
2022/07/25 03:38:38;;;;;;;;;;;18.60;99.90;;;;;;5093488;28;19914;-66
2022/07/25 03:41:03;;;;;;;;;;;18.60;99.90;;;;;;5093646;28;20370;-66
2022/07/25 03:43:29;;;;;;;;;;;18.70;99.90;;;;;;5093136;28;19913;-66
2022/07/25 03:45:55;;;;;;;;;;;18.70;99.90;;;;;;5097358;28;19912;-66
2022/07/25 03:48:20;;;;;;;;;;;18.60;99.90;;;;;;5097388;28;19999;-66
2022/07/25 03:50:46;;;;;;;;;;;18.50;99.90;;;;;;5097081;28;19920;-66
2022/07/25 03:53:11;;;;;;;;;;;18.50;99.90;;;;;;5097026;28;19909;-66
2022/07/25 03:55:38;;;;;;;;;;;18.50;99.90;;;;;;5096993;28;19915;-66
2022/07/25 03:58:03;;;;;;;;;;;18.50;99.90;;;;;;5097153;28;20331;-66
2022/07/25 04:00:29;;;;;;;;;;;18.50;99.90;;;;;;5097109;28;19908;-66
2022/07/25 04:02:54;;;;;;;;;;;18.50;99.90;;;;;;5096670;28;19999;-66
2022/07/25 04:05:20;;;;;;;;;;;18.60;99.90;;;;;;5097036;28;20342;-66
2022/07/25 04:07:45;;;;;;;;;;;18.60;99.90;;;;;;5078714;28;19912;-66
2022/07/25 04:10:11;;;;;;;;;;;18.60;99.90;;;;;;5096981;28;19958;-66
2022/07/25 04:12:37;;;;;;;;;;;18.60;99.90;;;;;;5096682;28;19908;-66
2022/07/25 04:15:03;;;;;;;;;;;18.60;99.90;;;;;;5078930;28;20286;-66
2022/07/25 04:17:29;;;;;;;;;;;18.60;99.90;;;;;;5096524;28;19908;-66
2022/07/25 04:19:54;;;;;;;;;;;18.60;99.90;;;;;;5096493;28;19957;-66
2022/07/25 04:22:21;;;;;;;;;;;18.70;99.90;;;;;;5096623;28;20274;-66
2022/07/25 04:24:46;;;;;;;;;;;18.70;99.90;;;;;;5096647;28;20366;-66
2022/07/25 04:27:12;;;;;;;;;;;18.80;99.90;;;;;;5096615;28;19919;-66
2022/07/25 04:29:37;;;;;;;;;;;18.80;99.90;;;;;;5096577;28;19994;-66
2022/07/25 04:32:03;;;;;;;;;;;18.90;99.90;;;;;;5096613;28;20286;-66
2022/07/25 04:34:29;;;;;;;;;;;19.00;99.90;;;;;;5096239;28;20370;-66
2022/07/25 04:36:54;;;;;;;;;;;19.10;99.90;;;;;;5096224;28;19915;-66
2022/07/25 04:39:20;;;;;;;;;;;19.20;99.90;;;;;;5096086;28;19908;-66
2022/07/25 04:41:45;;;;;;;;;;;19.30;99.90;;;;;;5077918;28;19922;-66
2022/07/25 04:44:11;;;;;;;;;;;19.80;99.90;;;;;;5096349;28;19950;-66
2022/07/25 04:46:36;;;;;;;;;;;20.80;99.90;;;;;;5095950;28;20385;-66
2022/07/25 04:49:01;;;;;;;;;;;22.40;99.90;;;;;;5096262;28;19915;-66
2022/07/25 04:51:27;;;;;;;;;;;24.00;99.90;;;;;;5096193;28;19908;-66
2022/07/25 04:53:53;;;;;;;;;;;25.40;99.90;;;;;;5095937;28;19915;-66
2022/07/25 04:56:18;;;;;;;;;;;26.60;99.90;;;;;;5095484;28;20327;-67
2022/07/25 04:58:44;;;;;;;;;;;27.70;99.90;;;;;;5096003;28;19908;-66
2022/07/25 05:01:09;;;;;;;;;;;28.40;97.90;;;;;;5096006;28;20286;-67
2022/07/25 05:03:35;;;;;;;;;;;28.70;96.10;;;;;;5095485;28;20058;-67
2022/07/25 05:06:00;;;;;;;;;;;28.60;95.40;;;;;;5077479;28;20016;-67
2022/07/25 05:08:26;;;;;;;;;;;28.50;95.90;;;;;;5095577;28;19913;-67
2022/07/25 05:10:51;;;;;;;;;;;28.60;94.10;;;;;;5095810;28;19943;-67
2022/07/25 05:13:16;;;;;;;;;;;28.70;93.80;;;;;;5095502;28;19936;-67
2022/07/25 05:15:42;;;;;;;;;;;28.60;93.50;;;;;;5095444;28;20359;-67
2022/07/25 05:18:07;;;;;;;;;;;28.20;93.70;;;;;;5095349;28;19915;-66
2022/07/25 05:20:33;;;;;;;;;;;27.60;94.50;;;;;;5095254;28;20422;-66
2022/07/25 05:22:58;;;;;;;;;;;26.70;96.40;;;;;;5095120;28;20251;-66
2022/07/25 05:25:24;;;;;;;;;;;26.10;98.20;;;;;;5095451;28;19908;-66
2022/07/25 05:27:51;;;;;;;;;;;25.60;99.20;;;;;;5095371;28;19908;-67
2022/07/25 05:30:16;;;;;;;;;;;25.30;99.90;;;;;;5095095;28;19912;-66
2022/07/25 05:32:42;;;;;;;;;;;25.30;99.90;;;;;;5095067;28;19908;-67
2022/07/25 05:35:08;;;;;;;;;;;25.20;99.90;;;;;;5076888;28;19951;-67
2022/07/25 05:37:34;;;;;;;;;;;25.10;99.90;;;;;;5094881;28;19950;-66
2022/07/25 05:39:59;;;;;;;;;;;25.40;99.90;;;;;;5095131;28;20366;-67
2022/07/25 05:42:25;;;;;;;;;;;25.90;99.90;;;;;;5076844;28;20293;-67
2022/07/25 05:44:50;;;;;;;;;;;26.70;99.90;;;;;;5095118;28;19908;-67
2022/07/25 05:47:16;;;;;;;;;;;27.60;98.70;;;;;;5095092;28;19912;-66
2022/07/25 05:49:42;;;;;;;;;;;28.90;96.70;;;;;;5095023;28;19913;-67
2022/07/25 05:52:07;;;;;;;;;;;30.00;93.10;;;;;;5094734;28;20331;-67
2022/07/25 05:54:33;;;;;;;;;;;30.10;92.90;;;;;;5076633;28;19943;-67
2022/07/25 05:57:00;;;;;;;;;;;31.40;91.40;;;;;;5094888;28;19908;-67
2022/07/25 05:59:25;;;;;;;;;;;32.20;86.80;;;;;;5094831;28;19914;-65
2022/07/25 06:01:50;;;;;;;;;;;32.00;85.60;;;;;;5094407;28;19912;-64
2022/07/25 06:04:16;;;;;;;;;;;31.50;84.90;;;;;;5094175;28;19977;-65
2022/07/25 06:06:41;;;;;;;;;;;30.70;86.10;;;;;;5088303;28;19912;-65
2022/07/25 06:09:07;;;;;;;;;;;30.10;88.60;;;;;;5094621;28;19908;-65
2022/07/25 06:11:32;;;;;;;;;;;29.60;90.00;;;;;;5094246;28;19908;-65
2022/07/25 06:13:58;;;;;;;;;;;29.50;90.90;;;;;;5094325;28;19954;-65
2022/07/25 06:16:23;;;;;;;;;;;29.50;92.00;;;;;;5095676;28;19919;-65
2022/07/25 06:18:49;;;;;;;;;;;29.70;92.30;;;;;;5099751;28;19933;-65
2022/07/25 06:21:14;;;;;;;;;;;29.30;92.90;;;;;;5077769;28;19915;-67
2022/07/25 06:23:40;;;;;;;;;;;28.80;93.50;;;;;;5094346;28;19912;-67
2022/07/25 06:26:09;;;;;;;;;;;29.10;95.70;;;;;;5094294;28;20292;-67
2022/07/25 06:28:35;;;;;;;;;;;30.00;94.00;;;;;;5076316;28;20366;-67
2022/07/25 06:31:00;;;;;;;;;;;30.70;91.80;;;;;;5093709;28;20389;-67
2022/07/25 06:33:26;;;;;;;;;;;31.00;90.70;;;;;;5096851;28;19916;-68
2022/07/25 06:35:51;;;;;;;;;;;30.90;90.30;;;;;;5099578;28;20298;-67
2022/07/25 06:38:17;;;;;;;;;;;31.60;89.70;;;;;;5094825;28;19955;-67
2022/07/25 06:40:42;;;;;;;;;;;31.70;87.00;;;;;;5109992;28;19908;-67
2022/07/25 06:43:08;;;;;;;;;;;31.80;85.60;;;;;;5112858;28;19922;-67
2022/07/25 06:45:33;;;;;;;;;;;32.70;82.00;;;;;;5114417;28;20298;-67
2022/07/25 06:47:59;;;;;;;;;;;33.00;81.00;;;;;;5114224;28;20316;-67
2022/07/25 06:50:24;;;;;;;;;;;32.30;80.50;;;;;;5114032;28;19956;-64
2022/07/25 06:52:50;;;;;;;;;;;31.70;82.70;;;;;;5109839;28;20362;-65
2022/07/25 06:55:15;;;;;;;;;;;31.50;84.90;;;;;;5114091;28;19912;-64
2022/07/25 06:57:41;;;;;;;;;;;31.50;84.20;;;;;;5114255;28;19907;-65
2022/07/25 07:00:08;;;;;;;;;;;31.30;83.50;;;;;;5114013;28;19919;-65
2022/07/25 07:02:35;;;;;;;;;;;30.70;85.80;;;;;;5111804;28;19927;-65
2022/07/25 07:05:00;;;;;;;;;;;30.70;87.00;;;;;;5093673;28;19912;-67
2022/07/25 07:07:26;;;;;;;;;;;30.60;87.50;;;;;;5093600;28;19919;-67
2022/07/25 07:09:51;;;;;;;;;;;30.90;91.30;;;;;;5074523;28;19923;-68
2022/07/25 07:12:17;;;;;;;;;;;31.40;88.60;;;;;;5081096;28;19958;-67
2022/07/25 07:14:44;;;;;;;;;;;32.80;83.70;;;;;;5093647;28;19912;-67
2022/07/25 07:17:09;;;;;;;;;;;34.40;78.50;;;;;;5089985;28;19908;-67
2022/07/25 07:19:37;;;;;;;;;;;34.30;75.90;;;;;;5094947;28;20034;-66
2022/07/25 07:22:02;;;;;;;;;;;33.40;77.80;;;;;;5097811;28;19915;-69
2022/07/25 07:24:30;;;;;;;;;;;33.60;78.50;;;;;;5097474;28;19958;-68
2022/07/25 07:26:56;;;;;;;;;;;33.90;76.90;;;;;;5098479;28;19962;-68
2022/07/25 07:29:21;;;;;;;;;;;34.60;76.80;;;;;;5099318;28;19912;-68
2022/07/25 07:31:47;;;;;;;;;;;34.50;75.40;;;;;;5094426;28;19912;-67
2022/07/25 07:34:13;;;;;;;;;;;33.70;76.30;;;;;;5077293;28;19999;-67
2022/07/25 07:36:39;;;;;;;;;;;32.70;77.90;;;;;;5080133;28;19916;-67
2022/07/25 07:39:04;;;;;;;;;;;32.50;77.60;;;;;;5097458;28;19935;-67
2022/07/25 07:41:30;;;;;;;;;;;32.20;76.50;;;;;;5115856;28;19907;-67
2022/07/25 07:43:57;;;;;;;;;;;31.80;76.50;;;;;;5117981;28;19919;-67
2022/07/25 07:46:23;;;;;;;;;;;31.80;76.40;;;;;;5117724;28;20006;-66
2022/07/25 07:48:48;;;;;;;;;;;31.30;76.90;;;;;;5117618;28;19943;-68
2022/07/25 07:51:14;;;;;;;;;;;30.80;79.00;;;;;;5099616;28;19953;-67
2022/07/25 07:56:24;;;;;;;;;;;30.40;80.10;;;;;;5085402;28;20281;-68
2022/07/25 07:58:50;;;;;;;;;;;30.40;81.10;;;;;;5076583;28;19955;-68
2022/07/25 08:01:15;;;;;;;;;;;30.40;81.10;;;;;;5076579;28;19973;-68
2022/07/25 08:03:41;;;;;;;;;;;30.10;80.90;;;;;;5090039;28;19988;-68
2022/07/25 08:06:07;;;;;;;;;;;29.90;82.60;;;;;;5091304;28;19924;-67
2022/07/25 08:08:32;;;;;;;;;;;29.70;82.50;;;;;;5095511;28;19961;-67
2022/07/25 08:10:58;;;;;;;;;;;29.50;82.20;;;;;;5096483;28;19916;-67
2022/07/25 08:13:25;;;;;;;;;;;29.30;82.60;;;;;;5079474;28;19916;-67
2022/07/25 08:15:52;;;;;;;;;;;29.30;82.60;;;;;;5095708;28;20385;-67
2022/07/25 08:18:18;;;;;;;;;;;29.10;83.90;;;;;;5100416;28;20003;-67
2022/07/25 08:20:44;;;;;;;;;;;29.30;84.30;;;;;;5096472;28;20002;-67
2022/07/25 08:23:10;;;;;;;;;;;29.30;85.10;;;;;;5096662;28;19912;-67
2022/07/25 08:25:36;;;;;;;;;;;29.50;85.40;;;;;;5103956;28;20000;-67
2022/07/25 08:28:02;;;;;;;;;;;29.70;84.90;;;;;;5099907;28;19970;-67
2022/07/25 08:30:28;;;;;;;;;;;29.50;83.60;;;;;;5095871;28;19908;-67
2022/07/25 08:32:56;;;;;;;;;;;29.30;83.20;;;;;;5096273;28;19915;-67
2022/07/25 08:35:23;;;;;;;;;;;29.20;84.90;;;;;;5102158;28;19964;-66
2022/07/25 08:37:49;;;;;;;;;;;29.20;85.10;;;;;;5116777;28;19908;-66
2022/07/25 08:40:15;;;;;;;;;;;29.10;87.20;;;;;;5109812;28;20357;-67
2022/07/25 08:42:41;;;;;;;;;;;29.30;85.70;;;;;;5078286;28;20378;-66
2022/07/25 08:45:09;;;;;;;;;;;29.30;84.00;;;;;;5096859;28;19958;-66
2022/07/25 08:47:35;;;;;;;;;;;29.40;84.00;;;;;;5098264;28;19908;-67
2022/07/25 08:50:14;;;;;;;;;;;29.50;86.20;;;;;;5116311;28;19907;-67
2022/07/25 08:52:44;;;;;;;;;;;29.40;84.10;;;;;;5094189;28;19920;-66
2022/07/25 08:55:14;;;;;;;;;;;29.40;84.70;;;;;;5091103;28;20357;-66
2022/07/25 08:57:42;;;;;;;;;;;29.40;84.20;;;;;;5094047;28;19912;-66
2022/07/25 09:00:09;;;;;;;;;;;29.30;85.00;;;;;;5077283;28;19912;-66
2022/07/25 09:02:34;;;;;;;;;;;29.30;85.60;;;;;;5095571;28;19920;-66
2022/07/25 09:05:00;;;;;;;;;;;29.30;85.40;;;;;;5095875;28;19915;-65
2022/07/25 09:07:31;;;;;;;;;;;29.30;84.40;;;;;;5114618;28;20112;-66
2022/07/25 09:09:56;;;;;;;;;;;29.20;83.60;;;;;;5116271;28;19953;-66
2022/07/25 09:12:26;;;;;;;;;;;29.30;83.00;;;;;;5095154;28;19958;-66
2022/07/25 09:14:52;;;;;;;;;;;29.70;83.40;;;;;;5095861;28;20377;-66
2022/07/25 09:17:17;;;;;;;;;;;30.20;81.30;;;;;;5095850;28;19950;-66
2022/07/25 09:19:50;;;;;;;;;;;30.20;80.70;;;;;;5095370;28;19954;-67
2022/07/25 09:22:16;;;;;;;;;;;30.10;82.20;;;;;;5095391;28;20042;-66
2022/07/25 09:24:44;;;;;;;;;;;30.00;80.80;;;;;;5095577;28;20259;-66
2022/07/25 09:27:09;;;;;;;;;;;29.80;80.90;;;;;;5111456;28;19915;-66
2022/07/25 09:29:37;;;;;;;;;;;30.00;81.00;;;;;;5090070;28;19912;-66
2022/07/25 09:32:12;;;;;;;;;;;29.90;80.60;;;;;;5111682;28;20331;-67
2022/07/25 09:34:41;;;;;;;;;;;30.20;81.60;;;;;;5115625;28;19923;-66
2022/07/25 09:37:08;;;;;;;;;;;30.30;81.10;;;;;;5115861;28;19943;-67
2022/07/25 09:39:50;;;;;;;;;;;30.10;81.50;;;;;;5115726;28;20386;-67
2022/07/25 09:42:24;;;;;;;;;;;29.80;81.80;;;;;;5098005;28;19923;-66
2022/07/25 09:45:06;;;;;;;;;;;29.60;84.40;;;;;;5094930;28;19909;-66
2022/07/25 09:47:35;;;;;;;;;;;29.60;83.20;;;;;;5089301;28;20289;-66
2022/07/25 09:50:01;;;;;;;;;;;29.90;84.10;;;;;;5092499;28;19944;-67
2022/07/25 09:52:26;;;;;;;;;;;30.30;82.20;;;;;;5093465;28;19966;-68
2022/07/25 09:54:53;;;;;;;;;;;30.40;81.80;;;;;;5093356;28;19919;-67
2022/07/25 09:57:19;;;;;;;;;;;30.50;81.50;;;;;;5091677;28;20003;-68
2022/07/25 09:59:47;;;;;;;;;;;30.50;81.40;;;;;;5094699;28;19965;-69
2022/07/25 10:02:20;;;;;;;;;;;30.10;81.60;;;;;;5108779;28;20681;-67
2022/07/25 10:04:55;;;;;;;;;;;30.20;82.20;;;;;;5088418;28;19913;-67
2022/07/25 10:07:21;;;;;;;;;;;30.00;82.20;;;;;;5056460;28;19958;-67
2022/07/25 10:09:48;;;;;;;;;;;31.10;80.30;;;;;;5056137;28;19921;-67
2022/07/25 10:12:18;;;;;;;;;;;31.70;78.80;;;;;;5090874;28;19912;-66
2022/07/25 10:15:01;;;;;;;;;;;31.80;77.90;;;;;;5094277;28;19912;-66
2022/07/25 10:17:27;;;;;;;;;;;32.40;77.30;;;;;;5074083;28;19917;-67
2022/07/25 10:19:52;;;;;;;;;;;32.80;74.20;;;;;;5074025;28;19912;-67
2022/07/25 10:22:18;;;;;;;;;;;33.10;75.10;;;;;;5103459;28;20015;-66
2022/07/25 10:24:44;;;;;;;;;;;32.90;74.00;;;;;;5114874;28;20259;-66
2022/07/25 10:27:11;;;;;;;;;;;32.30;74.00;;;;;;5114628;28;19933;-67
2022/07/25 10:29:37;;;;;;;;;;;32.20;75.70;;;;;;5114771;28;19945;-67
2022/07/25 10:32:05;;;;;;;;;;;31.50;75.70;;;;;;5101902;28;19936;-66
2022/07/25 10:34:31;;;;;;;;;;;31.00;77.20;;;;;;5075571;28;20367;-66
2022/07/25 10:37:07;;;;;;;;;;;30.80;78.70;;;;;;5094312;28;19912;-67
2022/07/25 10:39:36;;;;;;;;;;;31.40;77.60;;;;;;5093878;28;19908;-67
2022/07/25 10:42:03;;;;;;;;;;;32.10;76.40;;;;;;5105820;28;20002;-68
2022/07/25 10:44:39;;;;;;;;;;;32.10;74.80;;;;;;5114297;28;20383;-67
2022/07/25 10:47:05;;;;;;;;;;;31.70;75.90;;;;;;5114362;28;19915;-67
2022/07/25 10:49:34;;;;;;;;;;;31.30;76.70;;;;;;5114473;28;19907;-67
2022/07/25 10:52:01;;;;;;;;;;;30.80;77.10;;;;;;5102416;28;19909;-67
2022/07/25 10:54:32;;;;;;;;;;;30.80;78.90;;;;;;5090565;28;19916;-66
2022/07/25 10:56:58;;;;;;;;;;;30.60;78.20;;;;;;5074355;28;19911;-67
2022/07/25 10:59:25;;;;;;;;;;;30.50;78.50;;;;;;5092202;28;19918;-66
2022/07/25 11:01:51;;;;;;;;;;;30.30;79.90;;;;;;5093522;28;19908;-67
2022/07/25 11:04:18;;;;;;;;;;;30.00;80.50;;;;;;5092960;28;22544;-66
2022/07/25 11:06:43;;;;;;;;;;;29.80;80.60;;;;;;5093749;28;19920;-67
2022/07/25 11:09:18;;;;;;;;;;;29.50;81.60;;;;;;5109503;28;19919;-67
2022/07/25 11:11:47;;;;;;;;;;;29.30;82.30;;;;;;5112293;28;20339;-67
2022/07/25 11:14:15;;;;;;;;;;;29.00;85.30;;;;;;5089495;28;19951;-68
2022/07/25 11:16:41;;;;;;;;;;;28.80;87.90;;;;;;5073365;28;19908;-68
2022/07/25 11:19:15;;;;;;;;;;;28.60;92.20;;;;;;5089063;28;20422;-68
2022/07/25 11:21:44;;;;;;;;;;;28.40;92.30;;;;;;5093488;28;20370;-68
2022/07/25 11:24:10;;;;;;;;;;;28.30;91.60;;;;;;5093573;28;19961;-70
2022/07/25 11:26:43;;;;;;;;;;;28.30;91.80;;;;;;5093396;28;19908;-67
2022/07/25 11:29:16;;;;;;;;;;;28.40;92.00;;;;;;5093827;28;19948;-66
2022/07/25 11:31:42;;;;;;;;;;;28.40;91.50;;;;;;5094915;28;20307;-67
2022/07/25 11:34:07;;;;;;;;;;;28.60;91.70;;;;;;5113711;28;19908;-66
2022/07/25 11:36:33;;;;;;;;;;;29.10;90.90;;;;;;5113688;28;19990;-66
2022/07/25 11:38:58;;;;;;;;;;;29.10;90.50;;;;;;5100113;28;19912;-66
2022/07/25 11:41:28;;;;;;;;;;;29.30;90.00;;;;;;5093201;28;19919;-66
2022/07/25 11:43:53;;;;;;;;;;;29.70;90.10;;;;;;5093464;28;19912;-66
2022/07/25 11:46:19;;;;;;;;;;;30.20;88.20;;;;;;5093254;28;20320;-67
2022/07/25 11:48:44;;;;;;;;;;;30.80;87.70;;;;;;5086358;28;19911;-66
2022/07/25 11:51:12;;;;;;;;;;;31.20;87.90;;;;;;5112259;28;20337;-67
2022/07/25 11:53:38;;;;;;;;;;;31.10;85.90;;;;;;5093346;28;20320;-66
2022/07/25 11:56:20;;;;;;;;;;;31.00;85.30;;;;;;5087899;28;19912;-67
2022/07/25 11:58:56;;;;;;;;;;;31.00;85.80;;;;;;5087589;28;19924;-66
2022/07/25 12:01:23;;;;;;;;;;;31.10;84.60;;;;;;5092909;28;19914;-66
2022/07/25 12:03:49;;;;;;;;;;;31.10;83.70;;;;;;5091502;28;19920;-66
2022/07/25 12:06:14;;;;;;;;;;;31.30;84.10;;;;;;5063476;28;19919;-66
2022/07/25 12:08:41;;;;;;;;;;;31.40;84.60;;;;;;5097382;28;19912;-66
2022/07/25 12:11:21;;;;;;;;;;;31.00;82.80;;;;;;5106996;28;19912;-66
2022/07/25 12:14:00;;;;;;;;;;;31.20;83.50;;;;;;5094977;28;20313;-66
2022/07/25 12:16:26;;;;;;;;;;;31.40;82.90;;;;;;5096581;28;19915;-66
2022/07/25 12:18:51;;;;;;;;;;;31.40;83.00;;;;;;5092505;28;19916;-67
2022/07/25 12:21:17;;;;;;;;;;;31.10;82.10;;;;;;5095480;28;19927;-66
2022/07/25 12:23:42;;;;;;;;;;;31.20;83.70;;;;;;5096448;28;20002;-66
2022/07/25 12:26:09;;;;;;;;;;;31.00;82.60;;;;;;5096110;28;19912;-67
2022/07/25 12:28:35;;;;;;;;;;;30.90;84.40;;;;;;5096056;28;19922;-67
2022/07/25 12:31:01;;;;;;;;;;;30.70;84.70;;;;;;5096725;28;20360;-67
2022/07/25 12:33:26;;;;;;;;;;;31.30;85.30;;;;;;5096380;28;19912;-67
2022/07/25 12:35:52;;;;;;;;;;;31.30;83.40;;;;;;5095720;28;19916;-68
2022/07/25 12:38:17;;;;;;;;;;;30.60;84.00;;;;;;5096262;28;19908;-67
2022/07/25 12:40:43;;;;;;;;;;;30.40;85.90;;;;;;5078322;28;19913;-67
2022/07/25 12:43:08;;;;;;;;;;;30.60;86.00;;;;;;5112612;28;19916;-67
2022/07/25 12:45:34;;;;;;;;;;;30.90;85.10;;;;;;5109944;28;19919;-67
2022/07/25 12:48:02;;;;;;;;;;;30.50;84.00;;;;;;5082285;28;19979;-68
2022/07/25 12:50:27;;;;;;;;;;;30.30;85.80;;;;;;5087129;28;20401;-69
2022/07/25 12:52:53;;;;;;;;;;;30.00;86.00;;;;;;5095932;28;19948;-69
2022/07/25 12:55:19;;;;;;;;;;;29.60;86.10;;;;;;5096240;28;19909;-69
2022/07/25 12:57:45;;;;;;;;;;;29.40;86.20;;;;;;5096075;28;20390;-69
2022/07/25 13:00:12;;;;;;;;;;;29.10;86.60;;;;;;5095765;28;19987;-68
2022/07/25 13:02:38;;;;;;;;;;;29.00;86.20;;;;;;5090956;28;19973;-68
2022/07/25 13:05:04;;;;;;;;;;;29.10;85.80;;;;;;5096547;28;19912;-69
2022/07/25 13:07:29;;;;;;;;;;;29.10;85.80;;;;;;5096056;28;20007;-70
2022/07/25 13:09:55;;;;;;;;;;;29.10;86.30;;;;;;5095919;28;19915;-68
2022/07/25 13:12:22;;;;;;;;;;;29.20;85.90;;;;;;5093349;28;19935;-68
2022/07/25 13:14:47;;;;;;;;;;;29.00;84.50;;;;;;5098122;28;20346;-68
2022/07/25 13:17:13;;;;;;;;;;;28.90;85.90;;;;;;5115960;28;19915;-69
2022/07/25 13:19:38;;;;;;;;;;;29.10;85.40;;;;;;5060851;28;20281;-68
2022/07/25 13:22:04;;;;;;;;;;;29.10;85.70;;;;;;5084922;28;19965;-70
2022/07/25 13:24:30;;;;;;;;;;;29.40;84.90;;;;;;5093763;28;19912;-68
2022/07/25 13:26:56;;;;;;;;;;;29.40;84.70;;;;;;5094961;28;19915;-68
2022/07/25 13:29:21;;;;;;;;;;;29.60;85.30;;;;;;5095607;28;20414;-69
2022/07/25 13:31:47;;;;;;;;;;;29.60;84.70;;;;;;5057501;28;19916;-68
2022/07/25 13:34:12;;;;;;;;;;;29.60;85.10;;;;;;5075227;28;19908;-69
2022/07/25 13:36:38;;;;;;;;;;;29.70;84.00;;;;;;5075205;28;19931;-68
2022/07/25 13:39:04;;;;;;;;;;;29.70;84.30;;;;;;5094822;28;19922;-69
2022/07/25 13:41:30;;;;;;;;;;;29.80;84.00;;;;;;5095390;28;19908;-69
2022/07/25 13:43:56;;;;;;;;;;;29.60;83.70;;;;;;5095069;28;19912;-68
2022/07/25 13:46:21;;;;;;;;;;;29.50;84.40;;;;;;5094911;28;20366;-69
2022/07/25 13:48:47;;;;;;;;;;;29.70;84.70;;;;;;5106839;28;19916;-69
2022/07/25 13:51:13;;;;;;;;;;;29.80;83.80;;;;;;5115209;28;19912;-69
2022/07/25 13:53:38;;;;;;;;;;;30.00;84.60;;;;;;5101655;28;19920;-69
2022/07/25 13:56:04;;;;;;;;;;;30.40;83.40;;;;;;5090724;28;19912;-69
2022/07/25 13:58:30;;;;;;;;;;;30.40;83.50;;;;;;5074944;28;20363;-69
2022/07/25 14:00:55;;;;;;;;;;;30.40;83.90;;;;;;5077501;28;19923;-68
2022/07/25 14:03:21;;;;;;;;;;;30.00;83.90;;;;;;5104467;28;19924;-68
2022/07/25 14:05:47;;;;;;;;;;;30.10;84.50;;;;;;5094701;28;19918;-68
2022/07/25 14:08:12;;;;;;;;;;;29.90;84.40;;;;;;5106353;28;19951;-68
2022/07/25 14:10:38;;;;;;;;;;;29.40;85.50;;;;;;5114970;28;20002;-68
2022/07/25 14:13:03;;;;;;;;;;;28.90;87.50;;;;;;5114717;28;19907;-68
2022/07/25 14:15:29;;;;;;;;;;;28.60;88.50;;;;;;5114979;28;19908;-68